Flight Track Log - Related Links

Times and Time Zones

All times are in EDT time to prevent confusion due to time zone crossing. See the CES2389 flight status page for this flight to view local times or setup timezone preferences in your user account.

Time Position Orientation Groundspeed Altitude Reporting Facility
EDT Latitude Longitude Course Direction KTS MPH feet Rate Location/Type
Thu 03:36:00 AM 32.8767 114.0661 293° West  Level Estimated
Thu 03:37:00 AM 32.9096 113.9638 291° West  Level Estimated
Thu 03:38:00 AM 32.9425 113.8615 291° West  Level Estimated
Thu 03:39:00 AM 32.9752 113.7590 291° West  Level Estimated
Thu 03:40:00 AM 33.0079 113.6565 291° West  Level Estimated
Thu 03:41:00 AM 33.0405 113.5540 291° West  Level Estimated
Thu 03:42:00 AM 33.0730 113.4513 291° West  Level Estimated
Thu 03:43:00 AM 33.1054 113.3486 291° West  Level Estimated
Thu 03:44:00 AM 33.1378 113.2458 291° West  Level Estimated
Thu 03:45:00 AM 33.1700 113.1429 291° West  Level Estimated
Thu 03:46:00 AM 33.2022 113.0400 291° West  Level Estimated
Thu 03:47:00 AM 33.2343 112.9369 290° West  Level Estimated
Thu 03:48:00 AM 33.2663 112.8338 290° West  Level Estimated
Thu 03:49:00 AM 33.2982 112.7307 290° West  Level Estimated
Thu 03:50:00 AM 33.3301 112.6274 290° West  Level Estimated
Thu 03:51:00 AM 33.3618 112.5241 290° West  Level Estimated
Thu 03:52:00 AM 33.3935 112.4206 290° West  Level Estimated
Thu 03:53:00 AM 33.4250 112.3172 290° West  Level Estimated
Thu 03:54:00 AM 33.4565 112.2136 290° West  Level Estimated
Thu 03:55:00 AM 33.4879 112.1100 290° West  Level Estimated
Thu 03:56:00 AM 33.5192 112.0063 290° West  Level Estimated
Thu 03:57:00 AM 33.5505 111.9025 290° West  Level Estimated
Thu 03:58:00 AM 33.5816 111.7986 290° West  Level Estimated
Thu 03:59:00 AM 33.6127 111.6947 290° West  Level Estimated
Thu 04:00:00 AM 33.6436 111.5907 290° West  Level Estimated
Thu 04:01:00 AM 33.6745 111.4866 290° West  Level Estimated
Thu 04:02:00 AM 33.7053 111.3824 290° West  Level Estimated
Thu 04:03:00 AM 33.7360 111.2782 290° West  Level Estimated
Thu 04:04:00 AM 33.7666 111.1739 289° West  Level Estimated
Thu 04:05:00 AM 33.7972 111.0695 289° West  Level Estimated
Thu 04:06:00 AM 33.8276 110.9651 289° West  Level Estimated
Thu 04:07:00 AM 33.8580 110.8606 289° West  Level Estimated
Thu 04:08:00 AM 33.8882 110.7560 289° West  Level Estimated
Thu 04:09:00 AM 33.9184 110.6513 289° West  Level Estimated
Thu 04:10:00 AM 33.9485 110.5465 289° West  Level Estimated
Thu 04:11:00 AM 33.9785 110.4417 289° West  Level Estimated
Thu 04:12:00 AM 34.0084 110.3368 289° West  Level Estimated
Thu 04:13:00 AM 34.0382 110.2318 289° West  Level Estimated
Thu 04:14:00 AM 34.0680 110.1268 289° West  Level Estimated
Thu 04:15:00 AM 34.0976 110.0217 289° West  Level Estimated
Thu 04:16:00 AM 34.1272 109.9165 289° West  Level Estimated
Thu 04:17:00 AM 34.1567 109.8112 289° West  Level Estimated
Thu 04:18:00 AM 34.1860 109.7059 289° West  Level Estimated
Thu 04:19:00 AM 34.2153 109.6005 289° West  Level Estimated
Thu 04:20:00 AM 34.2445 109.4950 289° West  Level Estimated
Thu 04:21:00 AM 34.2736 109.3894 288° West  Level Estimated
Thu 04:22:00 AM 34.3026 109.2838 288° West  Level Estimated
Thu 04:23:00 AM 34.3315 109.1781 288° West  Level Estimated
Thu 04:24:00 AM 34.3604 109.0723 288° West  Level Estimated
Thu 04:25:00 AM 34.3891 108.9664 288° West  Level Estimated
Thu 04:26:00 AM 34.4178 108.8605 288° West  Level Estimated
Thu 04:27:00 AM 34.4463 108.7545 288° West  Level Estimated
Thu 04:28:00 AM 34.4471 108.7516 288° West  Level Estimated
Thu 04:29:00 AM 34.4471 108.7516 121° Southeast  Level Estimated
Thu 04:30:00 AM 34.4471 108.7516 121° Southeast  Level Estimated
Thu 04:31:00 AM 34.4471 108.7516 121° Southeast  Level Estimated
Thu 04:32:00 AM 34.4471 108.7516 121° Southeast  Level Estimated
Thu 04:33:00 AM 34.4471 108.7516 121° Southeast  Level Estimated
Thu 04:34:00 AM 34.4471 108.7516 121° Southeast  Level Estimated
Thu 04:35:00 AM 34.4471 108.7516 121° Southeast  Level Estimated
Thu 04:36:00 AM 34.4471 108.7516 121° Southeast  Level Estimated
Thu 04:37:00 AM 34.4471 108.7516 121° Southeast  Level Estimated
Thu 04:38:00 AM 34.4471 108.7516 121° Southeast  Level Estimated
Thu 04:39:00 AM 34.4471 108.7516 121° Southeast  Level Estimated
Thu 04:40:00 AM 34.4471 108.7516 121° Southeast  Level Estimated
Thu 04:41:00 AM 34.4471 108.7516 121° Southeast  Level Estimated
Thu 04:42:00 AM 34.4471 108.7516 121° Southeast  Level Estimated
Thu 04:43:00 AM 34.4471 108.7516 121° Southeast  Level Estimated

Login

Don't have an account? Register now (free) for customized features, flight alerts, and more!